Time;durP1;ratioP1;P1;durP2;ratioP2;P2;SDS_P1;SDS_P2;PMS_P1;PMS_P2;Temp;Humidity;BMP_temperature;BMP_pressure;BME280_temperature;BME280_humidity;BME280_pressure;Samples;Min_cycle;Max_cycle;Signal;HPM_P1;HPM_P2
2022/04/28 00:09:02;;;;;;;70.00;41.90;;;;;;;3.01;67.59;100287.44;447946;1267;143368;-58
2022/04/28 00:19:08;;;;;;;71.90;44.00;;;;;;;2.90;67.36;100286.80;447047;1268;142479;-58
2022/04/28 00:29:13;;;;;;;68.80;42.90;;;;;;;2.76;67.75;100284.31;447912;1267;147549;-59
2022/04/28 00:39:19;;;;;;;60.20;39.80;;;;;;;2.63;68.18;100283.88;447975;1268;143092;-58
2022/04/28 00:59:50;;;;;;;65.80;41.90;;;;;;;2.41;68.66;100294.19;447687;1269;142474;-59
2022/04/28 01:09:55;;;;;;;62.20;38.60;;;;;;;2.27;68.70;100292.52;447235;1268;142767;-58
2022/04/28 01:20:01;;;;;;;68.50;43.20;;;;;;;2.14;68.71;100285.50;447831;1268;144125;-58
2022/04/28 01:30:14;;;;;;;89.80;57.70;;;;;;;2.01;69.11;100284.52;447942;1268;143570;-58
2022/04/28 01:40:21;;;;;;;91.80;56.60;;;;;;;1.97;70.22;100275.77;446962;1269;142477;-58
2022/04/28 01:50:27;;;;;;;76.30;47.30;;;;;;;2.01;70.62;100271.75;447843;1265;143061;-58
2022/04/28 02:00:34;;;;;;;75.30;44.00;;;;;;;1.93;70.31;100276.36;448009;1267;142736;-58
2022/04/28 02:10:40;;;;;;;81.10;47.70;;;;;;;1.84;70.46;100278.92;440238;1267;142302;-58
2022/04/28 02:20:46;;;;;;;82.80;50.80;;;;;;;1.76;70.47;100279.58;438188;1267;143272;-57
2022/04/28 02:30:51;;;;;;;77.10;50.10;;;;;;;1.65;70.46;100273.05;445716;1268;143106;-58
2022/04/28 02:40:57;;;;;;;82.60;51.80;;;;;;;1.51;70.41;100267.05;448010;1267;143676;-58
2022/04/28 02:51:03;;;;;;;78.30;50.20;;;;;;;1.42;70.57;100271.33;447971;1268;146003;-58
2022/04/28 03:01:09;;;;;;;79.60;49.50;;;;;;;1.32;70.49;100265.95;447194;1268;142443;-58
2022/04/28 03:11:15;;;;;;;81.20;54.90;;;;;;;1.27;71.60;100270.33;447969;1267;143668;-58
2022/04/28 03:21:21;;;;;;;84.10;53.10;;;;;;;1.34;72.54;100276.79;440950;1267;144648;-58
2022/04/28 03:31:27;;;;;;;78.00;50.60;;;;;;;1.42;71.81;100278.40;446625;1267;142848;-58
2022/04/28 03:41:33;;;;;;;85.40;51.20;;;;;;;1.56;71.71;100282.99;447950;1265;144780;-58
2022/04/28 03:51:39;;;;;;;77.90;50.70;;;;;;;1.85;71.34;100283.40;447540;1269;143079;-61
2022/04/28 04:01:45;;;;;;;91.60;53.60;;;;;;;2.20;70.89;100287.30;443111;1267;143107;-60
2022/04/28 04:11:55;;;;;;;81.50;51.70;;;;;;;2.64;71.06;100289.74;447886;1267;142437;-57
2022/04/28 04:22:00;;;;;;;89.00;54.40;;;;;;;3.17;71.21;100299.02;437995;1267;146401;-60
2022/04/28 04:32:24;;;;;;;85.70;50.60;;;;;;;3.56;71.41;100308.36;445982;1267;143553;-58
2022/04/28 04:42:30;;;;;;;83.20;49.80;;;;;;;4.02;71.08;100320.77;447499;1269;142941;-58
2022/04/28 04:52:37;;;;;;;82.30;50.40;;;;;;;4.55;70.89;100331.53;447127;1267;144107;-58
2022/04/28 05:02:42;;;;;;;70.60;44.20;;;;;;;4.90;70.75;100329.02;447890;1267;144936;-59
2022/04/28 05:12:48;;;;;;;78.70;48.40;;;;;;;5.22;70.86;100327.92;447158;1266;143203;-59
2022/04/28 05:22:54;;;;;;;72.90;46.70;;;;;;;5.46;70.55;100328.92;446512;1267;143249;-58
2022/04/28 05:33:00;;;;;;;86.90;49.40;;;;;;;5.70;70.81;100339.30;431437;1268;143202;-59
2022/04/28 05:53:30;;;;;;;48.60;34.80;;;;;;;6.61;70.62;100356.98;437212;1266;142058;-57
2022/04/28 06:03:36;;;;;;;43.80;31.80;;;;;;;7.17;69.75;100351.33;444622;1269;142054;-58
2022/04/28 06:13:43;;;;;;;39.80;29.30;;;;;;;7.46;68.91;100354.40;441925;1267;143971;-58
2022/04/28 06:23:49;;;;;;;54.40;31.90;;;;;;;7.85;68.15;100346.80;448040;1267;155003;-57
2022/04/28 06:33:55;;;;;;;35.80;24.80;;;;;;;8.33;67.45;100365.91;439869;1266;142870;-57
2022/04/28 06:44:01;;;;;;;31.20;24.80;;;;;;;8.78;66.30;100373.10;431411;1267;144035;-57
2022/04/28 06:54:08;;;;;;;28.60;24.60;;;;;;;9.81;65.53;100363.83;445179;1267;142487;-56
2022/04/28 07:04:14;;;;;;;31.60;25.80;;;;;;;13.66;63.52;100359.82;447238;1267;143776;-56
2022/04/28 07:14:20;;;;;;;21.20;18.80;;;;;;;25.11;53.81;100341.05;448016;1267;143654;-57
2022/04/28 07:24:26;;;;;;;20.40;15.10;;;;;;;30.71;43.09;100346.20;447753;1269;143193;-57
2022/04/28 07:34:32;;;;;;;16.60;13.00;;;;;;;36.52;34.31;100345.34;446961;1269;142687;-56
2022/04/28 07:44:38;;;;;;;16.20;11.80;;;;;;;39.65;29.00;100341.02;448002;1267;145319;-56
2022/04/28 07:54:45;;;;;;;12.90;10.20;;;;;;;42.81;25.33;100335.61;448051;1266;141740;-58
2022/04/28 08:04:51;;;;;;;11.00;10.20;;;;;;;44.88;21.75;100327.31;448060;1267;145411;-60
2022/04/28 08:14:57;;;;;;;12.60;11.50;;;;;;;44.19;19.64;100330.02;447986;1267;141806;-62
2022/04/28 08:25:03;;;;;;;12.70;11.30;;;;;;;35.58;20.36;100325.58;447010;1269;142149;-56
2022/04/28 08:35:10;;;;;;;12.70;10.40;;;;;;;29.88;22.11;100334.35;448031;1267;142047;-57
2022/04/28 08:45:21;;;;;;;13.00;8.80;;;;;;;26.91;23.58;100336.68;448001;1266;142201;-65
2022/04/28 08:55:27;;;;;;;10.60;7.60;;;;;;;25.12;25.24;100338.84;437483;1268;141010;-61
2022/04/28 09:05:35;;;;;;;9.30;7.90;;;;;;;23.91;26.60;100338.83;447131;1265;140644;-60
2022/04/28 09:15:39;;;;;;;;;;;;;;;22.57;27.00;100337.21;447791;1269;142074;-61
2022/04/28 09:25:46;;;;;;;7.40;4.20;;;;;;;20.62;28.41;100336.91;447348;1269;128205;-64
2022/04/28 09:35:54;;;;;;;4.40;3.40;;;;;;;20.01;28.51;100342.64;448035;1267;142704;-59
2022/04/28 09:45:58;;;;;;;;;;;;;;;19.21;29.14;100339.30;447268;1267;141118;-60
2022/04/28 09:56:07;;;;;;;4.00;3.60;;;;;;;18.79;29.67;100350.41;444930;1267;128992;-64
2022/04/28 10:06:14;;;;;;;6.60;4.70;;;;;;;18.65;29.77;100345.61;447958;1268;141293;-60
2022/04/28 10:16:23;;;;;;;4.00;3.40;;;;;;;18.42;29.77;100347.84;447244;1266;141942;-58
2022/04/28 10:37:01;;;;;;;6.30;3.60;;;;;;;18.30;29.77;100337.75;447294;1266;141881;-56
2022/04/28 10:47:07;;;;;;;12.00;5.70;;;;;;;18.61;29.80;100333.30;447688;1266;141498;-56
2022/04/28 10:57:15;;;;;;;8.90;4.70;;;;;;;19.03;30.60;100329.17;444796;1267;141596;-56
2022/04/28 11:07:24;;;;;;;4.60;2.80;;;;;;;19.42;30.02;100323.83;446363;1267;142485;-56
2022/04/28 11:17:32;;;;;;;5.70;3.00;;;;;;;19.21;29.04;100326.55;442513;1267;142392;-57
2022/04/28 11:27:38;;;;;;;5.60;5.20;;;;;;;18.72;29.72;100336.45;447975;1268;142353;-57
2022/04/28 11:37:43;;;;;;;5.10;4.60;;;;;;;18.73;30.48;100334.58;446105;1267;140990;-56
2022/04/28 11:47:51;;;;;;;12.00;6.10;;;;;;;18.60;30.52;100327.55;447901;1267;141807;-58
2022/04/28 11:57:57;;;;;;;13.90;6.70;;;;;;;18.47;31.29;100330.73;446775;1269;261380;-57
2022/04/28 12:08:03;;;;;;;5.90;5.40;;;;;;;18.42;31.81;100325.02;447754;1269;194741;-58
2022/04/28 12:28:39;;;;;;;8.00;6.30;;;;;;;18.34;32.90;100322.13;447288;1267;142674;-56
2022/04/28 12:38:49;;;;;;;;;;;;;;;18.10;33.15;100316.19;448014;1267;142433;-56
2022/04/28 12:48:56;;;;;;;5.80;4.90;;;;;;;18.09;33.16;100305.58;447552;1268;128899;-57
2022/04/28 12:59:08;;;;;;;8.90;5.30;;;;;;;17.88;32.52;100303.42;448063;1268;146171;-59
2022/04/28 13:09:15;;;;;;;6.60;4.10;;;;;;;17.77;32.66;100298.09;448075;1267;143798;-57
2022/04/28 13:19:22;;;;;;;5.50;5.00;;;;;;;17.91;32.01;100304.23;434277;1270;141899;-56
2022/04/28 13:29:29;;;;;;;9.90;8.90;;;;;;;18.11;33.25;100302.41;447822;1268;143251;-58
2022/04/28 13:39:35;;;;;;;11.90;7.40;;;;;;;17.91;33.89;100293.61;438325;1268;142221;-59
2022/04/28 13:49:41;;;;;;;5.90;5.40;;;;;;;18.02;33.59;100291.71;443805;1267;144538;-56
2022/04/28 13:59:47;;;;;;;7.30;6.00;;;;;;;18.15;32.71;100287.73;436755;1267;145442;-57
2022/04/28 14:09:53;;;;;;;11.30;7.90;;;;;;;18.23;32.81;100285.88;440658;1270;141597;-61
2022/04/28 14:20:00;;;;;;;10.90;8.30;;;;;;;17.95;33.81;100286.01;433257;1268;142829;-60
2022/04/28 14:30:08;;;;;;;12.20;8.00;;;;;;;17.77;34.58;100288.64;447844;1267;142298;-61
2022/04/28 14:40:17;;;;;;;7.20;6.50;;;;;;;17.94;34.58;100291.61;447228;1268;143554;-61
2022/04/28 15:00:46;;;;;;;11.30;8.30;;;;;;;17.56;35.21;100298.95;446383;1267;141488;-62
2022/04/28 15:10:53;;;;;;;15.10;9.20;;;;;;;17.20;35.69;100300.48;445165;1268;142098;-61
2022/04/28 15:20:59;;;;;;;7.60;6.80;;;;;;;16.63;36.43;100295.52;441303;1269;142879;-61
2022/04/28 15:31:05;;;;;;;10.90;7.20;;;;;;;16.31;37.11;100305.39;447184;1266;142633;-61
2022/04/28 15:41:11;;;;;;;14.90;9.10;;;;;;;15.98;37.70;100309.65;448040;1268;142794;-62
2022/04/28 15:51:17;;;;;;;9.40;8.20;;;;;;;15.55;38.90;100318.23;435891;1267;142434;-59
2022/04/28 16:01:23;;;;;;;10.60;7.70;;;;;;;15.25;40.16;100322.36;441618;1269;142200;-61
2022/04/28 16:11:32;;;;;;;10.40;6.80;;;;;;;15.02;40.99;100324.15;447961;1268;141433;-62
2022/04/28 16:21:38;;;;;;;6.50;5.90;;;;;;;14.81;40.60;100331.11;444826;1268;141648;-60
2022/04/28 16:31:44;;;;;;;13.20;7.50;;;;;;;14.75;40.33;100332.36;442827;1267;142428;-62
2022/04/28 16:41:50;;;;;;;8.70;6.40;;;;;;;14.66;40.52;100335.98;445357;1270;142187;-60
2022/04/28 16:51:58;;;;;;;6.60;5.90;;;;;;;14.45;40.74;100344.24;440860;1268;202919;-61
2022/04/28 17:02:04;;;;;;;6.50;5.70;;;;;;;14.29;41.02;100354.15;447914;1267;141743;-61
2022/04/28 17:12:12;;;;;;;8.30;5.70;;;;;;;14.48;40.95;100361.54;447929;1266;144480;-60
2022/04/28 17:22:19;;;;;;;8.70;7.00;;;;;;;14.07;41.28;100359.80;447319;1267;142090;-62
2022/04/28 17:32:25;;;;;;;6.30;4.90;;;;;;;13.83;41.65;100371.73;447654;1269;141939;-62
2022/04/28 17:42:33;;;;;;;7.00;5.60;;;;;;;13.45;42.06;100389.31;448008;1267;141605;-66
2022/04/28 17:52:39;;;;;;;7.60;5.10;;;;;;;12.91;42.96;100403.64;447132;1268;142571;-59
2022/04/28 18:02:45;;;;;;;13.30;6.20;;;;;;;12.44;43.80;100412.92;447632;1269;145810;-60
2022/04/28 18:12:52;;;;;;;18.50;8.00;;;;;;;12.02;44.58;100426.55;447362;1267;142361;-57
2022/04/28 18:22:58;;;;;;;48.80;12.00;;;;;;;11.64;45.47;100442.15;447676;1269;141910;-58
2022/04/28 18:33:04;;;;;;;16.10;7.80;;;;;;;11.45;46.43;100452.24;448085;1268;143333;-59
2022/04/28 18:53:35;;;;;;;17.70;8.30;;;;;;;10.95;47.75;100481.36;448076;1267;143882;-57
2022/04/28 19:03:43;;;;;;;15.30;8.20;;;;;;;10.63;48.51;100493.98;439548;1267;142124;-58
2022/04/28 19:13:49;;;;;;;12.30;8.10;;;;;;;10.47;49.14;100504.17;447842;1267;196765;-64
2022/04/28 19:23:55;;;;;;;10.70;8.60;;;;;;;10.36;49.50;100515.39;447950;1267;145079;-59
2022/04/28 19:34:02;;;;;;;12.40;11.10;;;;;;;10.25;49.90;100520.80;447212;1267;142450;-55
2022/04/28 19:44:08;;;;;;;12.50;10.70;;;;;;;10.22;50.46;100527.06;447550;1267;142542;-58
2022/04/28 19:54:14;;;;;;;12.50;11.30;;;;;;;10.19;50.73;100526.16;440394;1268;145044;-54
2022/04/28 20:04:20;;;;;;;11.70;9.20;;;;;;;10.06;50.88;100537.05;446876;1269;141874;-65
2022/04/28 20:14:27;;;;;;;10.30;8.70;;;;;;;9.96;51.25;100548.39;447966;1266;142758;-59
2022/04/28 20:24:36;;;;;;;14.80;11.10;;;;;;;9.86;51.56;100554.07;447460;1269;143436;-63
2022/04/28 20:34:51;;;;;;;14.50;12.10;;;;;;;10.02;51.57;100555.62;445999;1268;141756;-60
2022/04/28 20:44:57;;;;;;;14.80;12.10;;;;;;;10.16;51.57;100558.16;444881;1267;144615;-58
2022/04/28 20:55:05;;;;;;;13.00;10.90;;;;;;;10.14;51.52;100559.09;446564;1267;143366;-59
2022/04/28 21:05:13;;;;;;;22.10;13.50;;;;;;;10.07;52.03;100567.84;447762;1268;142842;-60
2022/04/28 21:15:22;;;;;;;14.70;10.60;;;;;;;9.93;52.20;100574.91;447922;1267;143447;-61
2022/04/28 21:25:30;;;;;;;14.00;9.70;;;;;;;9.75;52.37;100573.45;436718;1267;142816;-61
2022/04/28 21:35:36;;;;;;;14.10;11.00;;;;;;;9.61;52.53;100573.22;447927;1267;142158;-64
2022/04/28 21:45:43;;;;;;;14.40;12.50;;;;;;;9.45;53.01;100569.15;439608;1267;141482;-57
2022/04/28 21:55:49;;;;;;;19.00;14.50;;;;;;;9.30;53.59;100568.07;436184;1267;142330;-53
2022/04/28 22:16:19;;;;;;;20.10;16.10;;;;;;;8.78;55.76;100574.06;447289;1267;143164;-57
2022/04/28 22:26:26;;;;;;;19.10;15.60;;;;;;;8.59;56.73;100579.17;447884;1268;142381;-57
2022/04/28 22:36:33;;;;;;;30.90;21.40;;;;;;;8.32;57.39;100578.45;441437;1267;143383;-57
2022/04/28 22:46:39;;;;;;;30.60;21.80;;;;;;;7.94;57.98;100578.33;444939;1269;142306;-51
2022/04/28 22:56:45;;;;;;;37.00;25.70;;;;;;;7.54;58.76;100570.86;434134;1267;143982;-57
2022/04/28 23:06:51;;;;;;;38.80;22.90;;;;;;;7.12;59.31;100567.42;445205;1269;144536;-56
2022/04/28 23:16:57;;;;;;;43.10;26.80;;;;;;;6.77;60.23;100566.66;439483;1267;141835;-55
2022/04/28 23:27:04;;;;;;;35.90;24.50;;;;;;;6.48;61.00;100558.90;447680;1269;143208;-56
2022/04/28 23:47:34;;;;;;;42.10;24.50;;;;;;;5.96;62.04;100556.61;444235;1267;142493;-57
2022/04/28 23:57:41;;;;;;;40.00;29.40;;;;;;;5.74;62.88;100557.21;447655;1267;333811;-55
